Time;durP1;ratioP1;P1;durP2;ratioP2;P2;SDS_P1;SDS_P2;PMS_P1;PMS_P2;Temp;Humidity;BMP_temperature;BMP_pressure;BME280_temperature;BME280_humidity;BME280_pressure;Samples;Min_cycle;Max_cycle;Signal;HPM_P1;HPM_P2
2023/04/29 00:00:22;;;;;;;4.07;2.72;;;;;;;;;;4995010;28;20577;-75
2023/04/29 00:02:49;;;;;;;7.15;3.10;;;;;;;;;;5005294;28;20056;-76
2023/04/29 00:05:15;;;;;;;6.10;2.80;;;;;;;;;;4996110;28;20028;-76
2023/04/29 00:07:42;;;;;;;5.30;3.03;;;;;;;;;;4997094;28;20035;-76
2023/04/29 00:10:08;;;;;;;6.53;3.13;;;;;;;;;;4994229;28;20381;-75
2023/04/29 00:12:34;;;;;;;4.95;3.35;;;;;;;;;;5007976;28;20660;-75
2023/04/29 00:15:01;;;;;;;7.65;3.00;;;;;;;;;;4996797;28;20034;-76
2023/04/29 00:17:28;;;;;;;6.13;3.45;;;;;;;;;;4999687;28;20057;-75
2023/04/29 00:19:54;;;;;;;4.40;2.83;;;;;;;;;;4999008;28;20029;-77
2023/04/29 00:22:21;;;;;;;3.70;2.85;;;;;;;;;;5002250;28;20149;-76
2023/04/29 00:24:47;;;;;;;4.95;2.97;;;;;;;;;;4996390;28;20530;-76
2023/04/29 00:27:15;;;;;;;6.03;3.08;;;;;;;;;;5007575;28;20076;-76
2023/04/29 00:29:41;;;;;;;7.50;3.70;;;;;;;;;;5000274;28;20025;-76
2023/04/29 00:32:07;;;;;;;4.20;2.60;;;;;;;;;;4999314;28;20113;-75
2023/04/29 00:34:34;;;;;;;6.00;2.90;;;;;;;;;;4994615;28;20363;-75
2023/04/29 00:37:00;;;;;;;5.40;3.33;;;;;;;;;;5003423;28;20113;-76
2023/04/29 00:39:26;;;;;;;7.05;3.20;;;;;;;;;;5002175;28;20022;-76
2023/04/29 00:41:53;;;;;;;5.22;2.85;;;;;;;;;;5002779;28;20032;-77
2023/04/29 00:44:19;;;;;;;5.65;3.30;;;;;;;;;;4996384;28;20033;-75
2023/04/29 00:46:45;;;;;;;5.05;3.20;;;;;;;;;;5001347;28;20033;-77
2023/04/29 00:49:13;;;;;;;5.30;3.00;;;;;;;;;;5002993;28;20065;-76
2023/04/29 00:51:40;;;;;;;6.25;3.10;;;;;;;;;;5005592;28;20382;-77
2023/04/29 00:54:07;;;;;;;6.28;3.38;;;;;;;;;;5000441;28;20183;-77
2023/04/29 00:56:35;;;;;;;7.43;3.05;;;;;;;;;;5001057;28;20034;-76
2023/04/29 00:59:02;;;;;;;4.88;3.00;;;;;;;;;;5001233;28;20050;-76
2023/04/29 01:01:29;;;;;;;5.00;3.20;;;;;;;;;;5005651;28;20022;-76
2023/04/29 01:03:57;;;;;;;4.90;3.33;;;;;;;;;;5002375;28;20060;-75
2023/04/29 01:06:42;;;;;;;6.10;2.55;;;;;;;;;;4995653;28;20073;-76
2023/04/29 01:09:27;;;;;;;5.95;2.75;;;;;;;;;;5000620;28;20088;-76
2023/04/29 01:12:07;;;;;;;5.68;3.35;;;;;;;;;;5003680;28;20034;-75
2023/04/29 01:14:34;;;;;;;4.65;3.15;;;;;;;;;;4996810;28;20108;-77
2023/04/29 01:17:05;;;;;;;6.75;3.25;;;;;;;;;;4999701;28;20110;-75
2023/04/29 01:19:46;;;;;;;7.15;3.10;;;;;;;;;;5003949;28;20021;-77
2023/04/29 01:22:20;;;;;;;5.07;3.08;;;;;;;;;;4999522;28;21334;-77
2023/04/29 01:24:47;;;;;;;5.75;2.70;;;;;;;;;;4993968;28;20029;-75
2023/04/29 01:27:22;;;;;;;6.93;3.17;;;;;;;;;;4997666;28;20072;-76
2023/04/29 01:30:08;;;;;;;7.03;3.08;;;;;;;;;;5001509;28;20459;-77
2023/04/29 01:32:47;;;;;;;8.88;4.25;;;;;;;;;;4965172;28;20509;-76
2023/04/29 01:35:20;;;;;;;6.03;3.17;;;;;;;;;;4997499;28;20022;-76
2023/04/29 01:37:56;;;;;;;5.95;3.60;;;;;;;;;;5004476;28;20060;-76
2023/04/29 01:40:26;;;;;;;9.10;3.65;;;;;;;;;;5002104;28;20626;-76
2023/04/29 01:42:58;;;;;;;5.28;3.00;;;;;;;;;;5004122;28;20026;-76
2023/04/29 01:45:26;;;;;;;7.10;3.85;;;;;;;;;;4995817;28;20014;-76
2023/04/29 01:47:54;;;;;;;10.45;3.47;;;;;;;;;;5004234;28;20129;-75
2023/04/29 01:50:21;;;;;;;5.20;3.58;;;;;;;;;;4999446;28;20024;-76
2023/04/29 01:52:47;;;;;;;9.18;3.42;;;;;;;;;;5006149;28;20375;-75
2023/04/29 01:55:13;;;;;;;6.93;3.40;;;;;;;;;;4980644;28;20022;-76
2023/04/29 01:57:39;;;;;;;9.90;3.50;;;;;;;;;;5002429;28;20075;-76
2023/04/29 02:00:07;;;;;;;7.95;4.03;;;;;;;;;;5000248;28;20049;-75
2023/04/29 02:02:34;;;;;;;6.78;3.53;;;;;;;;;;4994910;28;20037;-75
2023/04/29 02:05:00;;;;;;;7.07;3.72;;;;;;;;;;4992451;28;20467;-75
2023/04/29 02:07:26;;;;;;;5.35;3.70;;;;;;;;;;4998138;28;20083;-75
2023/04/29 02:09:52;;;;;;;4.07;3.10;;;;;;;;;;5005793;28;20030;-77
2023/04/29 02:12:18;;;;;;;5.07;3.13;;;;;;;;;;5002360;28;20026;-75
2023/04/29 02:14:46;;;;;;;7.10;3.53;;;;;;;;;;5003008;28;20866;-76
2023/04/29 02:17:13;;;;;;;5.18;2.97;;;;;;;;;;4998894;28;20026;-77
2023/04/29 02:19:39;;;;;;;5.30;3.30;;;;;;;;;;5007175;28;20058;-76
2023/04/29 02:22:05;;;;;;;5.03;2.58;;;;;;;;;;5002895;28;20198;-75
2023/04/29 02:24:31;;;;;;;5.03;2.78;;;;;;;;;;5002734;28;20105;-77
2023/04/29 02:26:58;;;;;;;5.70;2.90;;;;;;;;;;4998467;28;20026;-77
2023/04/29 02:29:26;;;;;;;3.92;3.20;;;;;;;;;;5005256;28;20018;-76
2023/04/29 02:31:52;;;;;;;4.93;2.83;;;;;;;;;;5005092;28;20442;-76
2023/04/29 02:34:18;;;;;;;3.60;2.70;;;;;;;;;;5004527;28;20045;-77
2023/04/29 02:36:44;;;;;;;3.78;2.63;;;;;;;;;;5004329;28;20026;-76
2023/04/29 02:39:10;;;;;;;7.05;3.15;;;;;;;;;;5006155;28;20026;-77
2023/04/29 02:41:37;;;;;;;3.47;2.42;;;;;;;;;;5005820;28;20079;-75
2023/04/29 02:44:03;;;;;;;5.75;2.67;;;;;;;;;;5007054;28;20407;-76
2023/04/29 02:46:31;;;;;;;5.50;3.10;;;;;;;;;;4991616;28;20028;-75
2023/04/29 02:48:57;;;;;;;6.22;3.10;;;;;;;;;;5006346;28;20718;-77
2023/04/29 02:51:24;;;;;;;6.25;4.03;;;;;;;;;;4999889;28;20080;-75
2023/04/29 02:53:50;;;;;;;6.75;3.70;;;;;;;;;;5002246;28;20034;-77
2023/04/29 02:56:17;;;;;;;4.45;2.75;;;;;;;;;;5007369;28;20025;-76
2023/04/29 02:58:43;;;;;;;8.18;3.42;;;;;;;;;;5001173;28;20037;-75
2023/04/29 03:01:09;;;;;;;6.13;3.55;;;;;;;;;;5006734;28;20088;-74
2023/04/29 03:03:36;;;;;;;4.78;3.17;;;;;;;;;;5004047;28;20045;-76
2023/04/29 03:06:03;;;;;;;4.03;3.00;;;;;;;;;;5003466;28;20552;-75
2023/04/29 03:08:29;;;;;;;7.55;3.75;;;;;;;;;;5007847;28;20022;-76
2023/04/29 03:10:55;;;;;;;5.80;3.80;;;;;;;;;;4999907;28;20109;-76
2023/04/29 03:13:21;;;;;;;5.88;3.83;;;;;;;;;;5006175;28;20105;-77
2023/04/29 03:15:48;;;;;;;5.65;3.33;;;;;;;;;;5002567;28;20018;-76
2023/04/29 03:18:14;;;;;;;7.43;3.28;;;;;;;;;;5001884;28;20056;-75
2023/04/29 03:20:40;;;;;;;7.07;4.45;;;;;;;;;;5001091;28;20029;-75
2023/04/29 03:23:06;;;;;;;5.95;3.70;;;;;;;;;;5005524;28;20084;-75
2023/04/29 03:25:32;;;;;;;4.90;3.22;;;;;;;;;;4997829;28;20166;-76
2023/04/29 03:27:58;;;;;;;4.03;3.25;;;;;;;;;;4985722;28;20081;-75
2023/04/29 03:30:25;;;;;;;5.57;3.78;;;;;;;;;;4998339;28;20101;-75
2023/04/29 03:32:51;;;;;;;6.55;3.38;;;;;;;;;;5005902;28;20026;-75
2023/04/29 03:35:17;;;;;;;4.88;3.72;;;;;;;;;;4996761;28;20018;-75
2023/04/29 03:37:43;;;;;;;5.13;3.50;;;;;;;;;;5000208;28;20105;-77
2023/04/29 03:40:10;;;;;;;6.80;3.58;;;;;;;;;;4999901;28;20084;-75
2023/04/29 03:42:36;;;;;;;3.90;3.00;;;;;;;;;;4999886;28;20026;-74
2023/04/29 03:45:03;;;;;;;4.45;3.55;;;;;;;;;;5002884;28;20133;-75
2023/04/29 03:47:29;;;;;;;6.15;3.45;;;;;;;;;;5002600;28;20044;-76
2023/04/29 03:49:55;;;;;;;6.05;3.55;;;;;;;;;;5002011;28;20387;-76
2023/04/29 03:52:22;;;;;;;7.40;3.25;;;;;;;;;;5005227;28;20026;-77
2023/04/29 03:54:48;;;;;;;4.47;3.33;;;;;;;;;;4998240;28;20506;-75
2023/04/29 03:57:14;;;;;;;8.73;3.55;;;;;;;;;;5003710;28;20125;-76
2023/04/29 03:59:40;;;;;;;5.63;3.45;;;;;;;;;;4998811;28;20049;-75
2023/04/29 04:02:07;;;;;;;5.25;3.13;;;;;;;;;;5003740;28;20029;-75
2023/04/29 04:04:33;;;;;;;4.57;3.05;;;;;;;;;;4998479;28;20022;-75
2023/04/29 04:06:59;;;;;;;5.57;3.10;;;;;;;;;;5003953;28;20072;-75
2023/04/29 04:09:25;;;;;;;6.15;3.70;;;;;;;;;;4995652;28;20035;-75
2023/04/29 04:11:52;;;;;;;6.88;4.03;;;;;;;;;;4985902;28;20133;-77
2023/04/29 04:14:18;;;;;;;5.68;4.15;;;;;;;;;;4996958;28;20754;-76
2023/04/29 04:16:44;;;;;;;5.10;3.15;;;;;;;;;;5003308;28;20022;-75
2023/04/29 04:19:10;;;;;;;4.80;3.30;;;;;;;;;;4997001;28;20022;-76
2023/04/29 04:21:37;;;;;;;3.35;3.03;;;;;;;;;;4985350;28;20109;-75
2023/04/29 04:24:03;;;;;;;5.30;3.28;;;;;;;;;;4998418;28;20036;-76
2023/04/29 04:26:29;;;;;;;7.32;3.40;;;;;;;;;;5003406;28;20097;-75
2023/04/29 04:28:55;;;;;;;6.38;3.38;;;;;;;;;;4998009;28;20067;-76
2023/04/29 04:31:22;;;;;;;5.07;3.25;;;;;;;;;;5001209;28;20026;-77
2023/04/29 04:33:48;;;;;;;9.85;3.50;;;;;;;;;;5000329;28;20493;-76
2023/04/29 04:36:14;;;;;;;6.47;3.20;;;;;;;;;;4981276;28;20160;-75
2023/04/29 04:38:40;;;;;;;4.07;3.17;;;;;;;;;;5000211;28;20061;-76
2023/04/29 04:41:07;;;;;;;14.73;5.13;;;;;;;;;;4999596;28;20018;-75
2023/04/29 04:43:33;;;;;;;8.48;5.30;;;;;;;;;;4997325;28;20034;-75
2023/04/29 04:45:59;;;;;;;9.32;5.43;;;;;;;;;;4998576;28;20018;-75
2023/04/29 04:48:25;;;;;;;9.88;6.10;;;;;;;;;;4984645;28;20031;-77
2023/04/29 04:50:52;;;;;;;8.50;4.63;;;;;;;;;;4999144;28;20029;-77
2023/04/29 04:53:18;;;;;;;9.02;4.38;;;;;;;;;;5002874;28;20034;-75
2023/04/29 04:55:45;;;;;;;8.40;4.63;;;;;;;;;;4982530;28;20033;-75
2023/04/29 04:58:11;;;;;;;7.82;4.55;;;;;;;;;;5002883;28;20422;-75
2023/04/29 05:00:37;;;;;;;10.35;4.00;;;;;;;;;;4998171;28;20141;-77
2023/04/29 05:03:04;;;;;;;6.60;4.00;;;;;;;;;;5001806;28;20121;-75
2023/04/29 05:05:32;;;;;;;5.88;4.43;;;;;;;;;;4991501;28;20057;-76
2023/04/29 05:07:59;;;;;;;14.98;5.10;;;;;;;;;;5003822;28;20137;-75
2023/04/29 05:10:25;;;;;;;9.13;4.07;;;;;;;;;;4991606;28;20367;-75
2023/04/29 05:12:51;;;;;;;8.50;4.72;;;;;;;;;;5004730;28;20029;-76
2023/04/29 05:15:18;;;;;;;8.05;4.63;;;;;;;;;;4992053;28;20014;-76
2023/04/29 05:17:44;;;;;;;13.00;4.88;;;;;;;;;;5003346;28;20129;-77
2023/04/29 05:20:10;;;;;;;8.38;4.13;;;;;;;;;;4991912;28;20030;-76
2023/04/29 05:22:36;;;;;;;6.40;4.28;;;;;;;;;;5002018;28;20114;-75
2023/04/29 05:25:03;;;;;;;7.45;4.50;;;;;;;;;;5000601;28;20156;-76
2023/04/29 05:27:29;;;;;;;7.50;4.15;;;;;;;;;;5000747;28;20527;-75
2023/04/29 05:29:55;;;;;;;5.53;3.90;;;;;;;;;;4991095;28;20355;-75
2023/04/29 05:32:22;;;;;;;7.00;4.03;;;;;;;;;;5000762;28;20064;-75
2023/04/29 05:34:48;;;;;;;7.30;4.70;;;;;;;;;;5000543;28;20208;-75
2023/04/29 05:37:14;;;;;;;5.22;3.83;;;;;;;;;;4993913;28;20376;-76
2023/04/29 05:39:40;;;;;;;7.53;3.88;;;;;;;;;;5000666;28;20030;-75
2023/04/29 05:42:07;;;;;;;7.57;5.18;;;;;;;;;;4991165;28;20096;-75
2023/04/29 05:44:33;;;;;;;11.98;6.05;;;;;;;;;;4993745;28;20080;-76
2023/04/29 05:46:59;;;;;;;10.98;5.40;;;;;;;;;;5001636;28;20105;-76
2023/04/29 05:49:26;;;;;;;8.77;5.80;;;;;;;;;;4998010;28;20109;-76
2023/04/29 05:51:52;;;;;;;10.98;5.82;;;;;;;;;;4997956;28;20029;-75
2023/04/29 05:54:18;;;;;;;8.82;4.68;;;;;;;;;;4995834;28;20087;-75
2023/04/29 05:56:44;;;;;;;10.45;5.13;;;;;;;;;;4998393;28;20129;-75
2023/04/29 05:59:10;;;;;;;14.35;5.75;;;;;;;;;;4999178;28;20038;-76
2023/04/29 06:01:37;;;;;;;12.13;5.82;;;;;;;;;;4995946;28;20108;-76
2023/04/29 06:04:03;;;;;;;10.38;5.85;;;;;;;;;;4994886;28;20100;-76
2023/04/29 06:06:30;;;;;;;10.40;5.95;;;;;;;;;;4995996;28;20038;-76
2023/04/29 06:08:56;;;;;;;10.20;5.70;;;;;;;;;;4999965;28;20034;-75
2023/04/29 06:11:22;;;;;;;9.85;5.85;;;;;;;;;;4985094;28;20040;-75
2023/04/29 06:13:48;;;;;;;11.55;7.82;;;;;;;;;;5001341;28;20034;-77
2023/04/29 06:16:15;;;;;;;16.20;12.40;;;;;;;;;;4998860;28;20105;-75
2023/04/29 06:18:41;;;;;;;15.13;11.63;;;;;;;;;;5001081;28;20045;-76
2023/04/29 06:21:07;;;;;;;9.70;7.10;;;;;;;;;;4995726;28;20403;-75
2023/04/29 06:23:33;;;;;;;10.02;5.60;;;;;;;;;;5001013;28;20037;-75
2023/04/29 06:26:00;;;;;;;6.07;4.60;;;;;;;;;;4995022;28;20053;-75
2023/04/29 06:28:26;;;;;;;6.90;4.07;;;;;;;;;;4999800;28;20039;-77
2023/04/29 06:30:53;;;;;;;4.88;4.18;;;;;;;;;;4993093;28;20018;-76
2023/04/29 06:33:19;;;;;;;5.30;4.45;;;;;;;;;;5000562;28;20034;-77
2023/04/29 06:35:45;;;;;;;7.43;5.15;;;;;;;;;;4992710;28;20029;-76
2023/04/29 06:38:11;;;;;;;8.13;5.50;;;;;;;;;;5002282;28;20030;-75
2023/04/29 06:40:37;;;;;;;7.50;5.63;;;;;;;;;;4998254;28;20109;-76
2023/04/29 06:43:03;;;;;;;8.90;5.50;;;;;;;;;;4998986;28;20137;-76
2023/04/29 06:45:30;;;;;;;8.93;6.05;;;;;;;;;;5001412;28;20030;-75
2023/04/29 06:47:56;;;;;;;9.90;5.93;;;;;;;;;;5000017;28;20033;-75
2023/04/29 06:50:23;;;;;;;8.10;5.78;;;;;;;;;;4994235;28;20018;-75
2023/04/29 06:52:49;;;;;;;7.35;5.60;;;;;;;;;;4991616;28;20105;-76
2023/04/29 06:55:15;;;;;;;10.18;5.85;;;;;;;;;;4996535;28;20017;-75
2023/04/29 06:57:42;;;;;;;9.07;5.68;;;;;;;;;;4997476;28;20123;-76
2023/04/29 07:00:08;;;;;;;12.15;6.53;;;;;;;;;;4995237;28;20518;-75
2023/04/29 07:02:34;;;;;;;9.82;6.35;;;;;;;;;;5002605;28;20117;-75
2023/04/29 07:05:01;;;;;;;12.73;6.72;;;;;;;;;;4994510;28;20479;-76
2023/04/29 07:07:27;;;;;;;8.77;6.60;;;;;;;;;;5001077;28;20041;-75
2023/04/29 07:09:54;;;;;;;8.43;6.07;;;;;;;;;;4997431;28;20061;-75
2023/04/29 07:12:20;;;;;;;6.18;5.13;;;;;;;;;;5006025;28;20014;-75
2023/04/29 07:14:46;;;;;;;10.90;6.40;;;;;;;;;;5004115;28;20026;-75
2023/04/29 07:17:13;;;;;;;13.10;7.57;;;;;;;;;;4989535;28;20348;-76
2023/04/29 07:19:39;;;;;;;12.48;7.50;;;;;;;;;;5000753;28;20790;-76
2023/04/29 07:22:05;;;;;;;7.38;5.50;;;;;;;;;;4981647;28;20030;-77
2023/04/29 07:24:31;;;;;;;10.00;5.85;;;;;;;;;;4984414;28;20052;-77
2023/04/29 07:26:57;;;;;;;8.02;6.75;;;;;;;;;;5000795;28;20390;-75
2023/04/29 07:29:24;;;;;;;7.82;5.70;;;;;;;;;;4999691;28;20031;-77
2023/04/29 07:31:50;;;;;;;8.00;5.72;;;;;;;;;;4980947;28;20026;-76
2023/04/29 07:34:16;;;;;;;9.10;5.43;;;;;;;;;;4995511;28;20129;-75
2023/04/29 07:36:42;;;;;;;8.77;5.60;;;;;;;;;;4998164;28;20084;-76
2023/04/29 07:39:08;;;;;;;6.82;4.75;;;;;;;;;;5001653;28;20104;-74
2023/04/29 07:41:34;;;;;;;7.05;5.28;;;;;;;;;;5001045;28;20026;-75
2023/04/29 07:44:01;;;;;;;5.95;4.68;;;;;;;;;;5001724;28;20030;-77
2023/04/29 07:46:27;;;;;;;6.43;4.07;;;;;;;;;;4997450;28;20018;-75
2023/04/29 07:48:53;;;;;;;7.72;3.92;;;;;;;;;;5002175;28;20033;-76
2023/04/29 07:51:20;;;;;;;7.55;4.50;;;;;;;;;;5005302;28;20032;-77
2023/04/29 07:53:46;;;;;;;14.90;5.47;;;;;;;;;;5001822;28;20029;-75
2023/04/29 07:56:13;;;;;;;10.52;4.60;;;;;;;;;;4996700;28;20129;-77
2023/04/29 07:58:39;;;;;;;6.47;4.00;;;;;;;;;;4994776;28;20049;-77
2023/04/29 08:01:09;;;;;;;5.80;3.90;;;;;;;;;;4991302;28;20023;-77
2023/04/29 08:03:36;;;;;;;8.82;4.70;;;;;;;;;;5004229;28;20022;-75
2023/04/29 08:06:03;;;;;;;5.97;4.03;;;;;;;;;;4981177;28;20029;-76
2023/04/29 08:08:32;;;;;;;6.18;4.40;;;;;;;;;;5002701;28;20035;-75
2023/04/29 08:10:59;;;;;;;7.97;4.28;;;;;;;;;;4992095;28;20084;-78
2023/04/29 08:13:25;;;;;;;15.70;4.50;;;;;;;;;;5002253;28;20030;-75
2023/04/29 08:15:52;;;;;;;9.95;3.92;;;;;;;;;;4994077;28;20026;-76
2023/04/29 08:18:18;;;;;;;6.72;3.80;;;;;;;;;;5000545;28;20022;-75
2023/04/29 08:20:44;;;;;;;6.72;3.53;;;;;;;;;;4995386;28;20582;-75
2023/04/29 08:23:11;;;;;;;6.55;3.90;;;;;;;;;;5002731;28;20116;-75
2023/04/29 08:25:41;;;;;;;6.25;3.60;;;;;;;;;;4996911;28;20019;-74
2023/04/29 08:28:08;;;;;;;5.53;3.85;;;;;;;;;;4978553;28;20034;-76
2023/04/29 08:30:36;;;;;;;6.90;3.78;;;;;;;;;;4997251;28;20038;-75
2023/04/29 08:33:03;;;;;;;4.57;3.33;;;;;;;;;;4999134;28;20523;-76
2023/04/29 08:35:30;;;;;;;7.78;3.80;;;;;;;;;;4995665;28;20050;-75
2023/04/29 08:37:56;;;;;;;7.75;3.90;;;;;;;;;;4998598;28;20022;-77
2023/04/29 08:40:22;;;;;;;6.35;3.80;;;;;;;;;;4998342;28;20597;-75
2023/04/29 08:42:49;;;;;;;8.93;4.40;;;;;;;;;;5004042;28;20485;-76
2023/04/29 08:45:18;;;;;;;6.10;3.95;;;;;;;;;;4991821;28;20026;-75
2023/04/29 08:47:45;;;;;;;5.63;3.88;;;;;;;;;;4985026;28;20125;-75
2023/04/29 08:50:12;;;;;;;8.60;3.83;;;;;;;;;;4995583;28;20097;-75
2023/04/29 08:52:38;;;;;;;4.60;3.63;;;;;;;;;;4998695;28;20505;-74
2023/04/29 08:55:04;;;;;;;5.40;3.88;;;;;;;;;;4989172;28;20022;-76
2023/04/29 08:57:38;;;;;;;6.55;4.22;;;;;;;;;;4998890;28;20155;-74
2023/04/29 09:00:06;;;;;;;5.88;3.80;;;;;;;;;;4990896;28;20060;-75
2023/04/29 09:02:33;;;;;;;5.10;4.50;;;;;;;;;;4990247;28;20645;-76
2023/04/29 09:04:59;;;;;;;6.00;4.35;;;;;;;;;;4996636;28;20109;-76
2023/04/29 09:07:25;;;;;;;7.00;4.70;;;;;;;;;;5001358;28;20582;-75
2023/04/29 09:09:52;;;;;;;8.60;4.75;;;;;;;;;;5001155;28;20096;-76
2023/04/29 09:12:18;;;;;;;5.35;4.18;;;;;;;;;;4996703;28;20038;-75
2023/04/29 09:14:45;;;;;;;6.28;4.43;;;;;;;;;;4991097;28;20096;-75
2023/04/29 09:17:11;;;;;;;6.45;4.57;;;;;;;;;;4994989;28;20034;-74
2023/04/29 09:19:37;;;;;;;5.75;4.60;;;;;;;;;;4992219;28;20110;-74
2023/04/29 09:22:06;;;;;;;6.63;4.00;;;;;;;;;;4993918;28;20118;-77
2023/04/29 09:24:33;;;;;;;4.80;3.88;;;;;;;;;;4994833;28;20026;-74
2023/04/29 09:26:59;;;;;;;4.72;4.03;;;;;;;;;;4993364;28;20038;-75
2023/04/29 09:29:25;;;;;;;6.53;4.82;;;;;;;;;;4996062;28;20054;-75
2023/04/29 09:31:57;;;;;;;6.45;4.32;;;;;;;;;;4995527;28;20026;-75
2023/04/29 09:34:34;;;;;;;6.68;4.50;;;;;;;;;;5001102;28;20026;-75
2023/04/29 09:37:01;;;;;;;7.00;4.60;;;;;;;;;;4999286;28;20082;-76
2023/04/29 09:39:27;;;;;;;9.02;5.28;;;;;;;;;;4993848;28;20454;-75
2023/04/29 09:41:53;;;;;;;5.32;3.80;;;;;;;;;;5003644;28;20052;-75
2023/04/29 09:44:23;;;;;;;7.20;4.50;;;;;;;;;;4999872;28;20018;-75
2023/04/29 09:47:01;;;;;;;5.85;4.55;;;;;;;;;;5001399;28;20022;-75
2023/04/29 09:49:36;;;;;;;6.78;4.43;;;;;;;;;;4996450;28;20030;-75
2023/04/29 09:52:06;;;;;;;5.78;4.50;;;;;;;;;;5000985;28;20138;-75
2023/04/29 09:54:35;;;;;;;5.68;3.75;;;;;;;;;;4990985;28;20099;-75
2023/04/29 09:57:04;;;;;;;6.55;3.83;;;;;;;;;;5003488;28;20030;-75
2023/04/29 09:59:31;;;;;;;6.13;3.83;;;;;;;;;;4996282;28;20034;-76
2023/04/29 10:01:58;;;;;;;5.97;3.13;;;;;;;;;;5003164;28;20050;-74
2023/04/29 10:04:25;;;;;;;4.97;3.40;;;;;;;;;;4997891;28;20490;-75
2023/04/29 10:06:54;;;;;;;5.25;3.60;;;;;;;;;;5001236;28;20029;-76
2023/04/29 10:09:21;;;;;;;6.00;3.85;;;;;;;;;;4995770;28;20053;-74
2023/04/29 10:11:49;;;;;;;5.13;3.42;;;;;;;;;;5000637;28;20042;-74
2023/04/29 10:14:16;;;;;;;7.13;3.50;;;;;;;;;;4996376;28;20034;-76
2023/04/29 10:16:52;;;;;;;8.07;3.70;;;;;;;;;;5003500;28;20022;-74
2023/04/29 10:19:21;;;;;;;8.18;3.72;;;;;;;;;;4981296;28;20026;-75
2023/04/29 10:21:48;;;;;;;7.00;3.50;;;;;;;;;;4997408;28;20110;-75
2023/04/29 10:24:17;;;;;;;7.25;3.20;;;;;;;;;;4996342;28;20034;-75
2023/04/29 10:26:44;;;;;;;5.45;3.58;;;;;;;;;;5003295;28;20026;-76
2023/04/29 10:29:11;;;;;;;3.83;3.22;;;;;;;;;;4990766;28;20034;-75
2023/04/29 10:31:38;;;;;;;5.15;3.22;;;;;;;;;;4999517;28;20100;-75
2023/04/29 10:34:04;;;;;;;5.03;3.25;;;;;;;;;;5002082;28;20027;-75
2023/04/29 10:36:30;;;;;;;6.47;3.30;;;;;;;;;;5006881;28;20034;-75
2023/04/29 10:38:58;;;;;;;7.65;3.83;;;;;;;;;;4998591;28;20022;-75
2023/04/29 10:41:27;;;;;;;5.07;3.47;;;;;;;;;;5005367;28;20053;-76
2023/04/29 10:43:53;;;;;;;5.10;3.15;;;;;;;;;;5001279;28;20019;-76
2023/04/29 10:46:25;;;;;;;4.88;3.42;;;;;;;;;;5005276;28;20045;-75
2023/04/29 10:48:56;;;;;;;7.18;3.33;;;;;;;;;;4999754;28;20066;-75
2023/04/29 10:51:30;;;;;;;6.38;3.38;;;;;;;;;;5005578;28;20014;-75
2023/04/29 10:54:02;;;;;;;5.18;3.25;;;;;;;;;;5000338;28;20121;-76
2023/04/29 10:56:38;;;;;;;5.65;3.35;;;;;;;;;;5003445;28;20104;-76
2023/04/29 10:59:04;;;;;;;4.18;3.33;;;;;;;;;;4986301;28;20517;-76
2023/04/29 11:01:41;;;;;;;4.00;3.17;;;;;;;;;;5004359;28;20029;-74
2023/04/29 11:04:08;;;;;;;4.03;3.25;;;;;;;;;;4999482;28;20025;-74
2023/04/29 11:06:34;;;;;;;5.88;3.42;;;;;;;;;;5001710;28;20080;-76
2023/04/29 11:09:07;;;;;;;4.65;3.30;;;;;;;;;;5003220;28;20064;-76
2023/04/29 11:11:44;;;;;;;5.18;3.33;;;;;;;;;;5003057;28;20036;-75
2023/04/29 11:14:10;;;;;;;7.93;3.67;;;;;;;;;;4994593;28;20185;-75
2023/04/29 11:16:37;;;;;;;6.75;4.03;;;;;;;;;;5003769;28;20017;-74
2023/04/29 11:19:04;;;;;;;6.65;3.47;;;;;;;;;;5001057;28;20026;-75
2023/04/29 11:21:31;;;;;;;8.10;3.88;;;;;;;;;;5003594;28;20068;-74
2023/04/29 11:23:57;;;;;;;4.47;3.58;;;;;;;;;;5000504;28;20025;-75
2023/04/29 11:26:24;;;;;;;7.35;3.58;;;;;;;;;;4999085;28;20022;-75
2023/04/29 11:28:51;;;;;;;7.20;3.95;;;;;;;;;;5002719;28;20606;-75
2023/04/29 11:31:17;;;;;;;5.25;3.40;;;;;;;;;;4998489;28;20029;-74
2023/04/29 11:33:43;;;;;;;8.07;4.10;;;;;;;;;;4996603;28;20095;-76
2023/04/29 11:36:10;;;;;;;6.70;3.58;;;;;;;;;;4998534;28;20104;-76
2023/04/29 11:38:39;;;;;;;5.35;3.65;;;;;;;;;;5003297;28;20097;-76
2023/04/29 11:41:05;;;;;;;5.32;3.42;;;;;;;;;;5001479;28;20026;-75
2023/04/29 11:43:32;;;;;;;7.43;3.58;;;;;;;;;;4996967;28;20656;-75
2023/04/29 11:45:58;;;;;;;10.07;3.83;;;;;;;;;;5000395;28;20354;-74
2023/04/29 11:48:25;;;;;;;5.07;3.10;;;;;;;;;;5001798;28;20137;-75
2023/04/29 11:50:56;;;;;;;7.60;3.20;;;;;;;;;;4999962;28;20010;-75
2023/04/29 11:53:24;;;;;;;5.80;3.38;;;;;;;;;;5001892;28;20932;-74
2023/04/29 11:55:54;;;;;;;6.40;3.35;;;;;;;;;;5003130;28;20037;-75
2023/04/29 11:58:20;;;;;;;5.22;3.60;;;;;;;;;;4998543;28;20061;-76
2023/04/29 12:00:47;;;;;;;6.70;3.38;;;;;;;;;;5001018;28;20157;-76
2023/04/29 12:03:14;;;;;;;3.80;3.20;;;;;;;;;;5004358;28;20489;-75
2023/04/29 12:05:46;;;;;;;4.00;3.25;;;;;;;;;;4995101;28;20080;-75
2023/04/29 12:08:13;;;;;;;4.50;3.20;;;;;;;;;;5004484;28;20030;-74
2023/04/29 12:10:39;;;;;;;5.47;3.63;;;;;;;;;;4991122;28;20038;-76
2023/04/29 12:13:06;;;;;;;4.93;2.80;;;;;;;;;;5003111;28;20061;-75
2023/04/29 12:15:32;;;;;;;5.75;2.75;;;;;;;;;;4994753;28;20101;-77
2023/04/29 12:17:58;;;;;;;4.20;3.05;;;;;;;;;;5004990;28;20164;-74
2023/04/29 12:20:24;;;;;;;2.80;2.00;;;;;;;;;;4992957;28;20105;-74
2023/04/29 12:22:50;;;;;;;4.13;2.60;;;;;;;;;;5000375;28;20029;-75
2023/04/29 12:25:17;;;;;;;6.32;2.55;;;;;;;;;;4999644;28;20054;-75
2023/04/29 12:27:43;;;;;;;3.55;2.10;;;;;;;;;;5004002;28;20038;-75
2023/04/29 12:30:10;;;;;;;5.25;2.50;;;;;;;;;;4995850;28;20714;-75
2023/04/29 12:32:36;;;;;;;6.00;2.03;;;;;;;;;;4996797;28;20053;-74
2023/04/29 12:35:02;;;;;;;5.88;2.75;;;;;;;;;;5002395;28;20109;-74
2023/04/29 12:37:28;;;;;;;4.07;2.40;;;;;;;;;;4997610;28;20083;-76
2023/04/29 12:39:55;;;;;;;5.13;2.53;;;;;;;;;;4994284;28;20129;-74
2023/04/29 12:42:21;;;;;;;2.60;2.15;;;;;;;;;;5000367;28;20498;-76
2023/04/29 12:44:48;;;;;;;3.60;2.08;;;;;;;;;;4997164;28;20117;-75
2023/04/29 12:47:15;;;;;;;5.22;2.20;;;;;;;;;;5001069;28;20022;-75
2023/04/29 12:49:44;;;;;;;3.08;2.20;;;;;;;;;;5001634;28;20066;-75
2023/04/29 12:52:11;;;;;;;4.78;2.47;;;;;;;;;;5003103;28;20032;-75
2023/04/29 12:54:40;;;;;;;4.78;2.15;;;;;;;;;;4996769;28;20025;-75
2023/04/29 12:57:07;;;;;;;3.00;2.20;;;;;;;;;;5000159;28;20024;-76
2023/04/29 12:59:33;;;;;;;3.65;2.30;;;;;;;;;;5002062;28;20053;-75
2023/04/29 13:01:59;;;;;;;4.18;2.58;;;;;;;;;;5004179;28;20022;-74
2023/04/29 13:04:25;;;;;;;3.72;2.10;;;;;;;;;;5001189;28;20141;-75
2023/04/29 13:06:58;;;;;;;3.92;1.90;;;;;;;;;;4980762;28;20390;-75
2023/04/29 13:09:25;;;;;;;4.72;2.83;;;;;;;;;;4997555;28;20319;-75
2023/04/29 13:11:51;;;;;;;7.68;2.55;;;;;;;;;;4999769;28;20022;-74
2023/04/29 13:14:17;;;;;;;5.57;2.45;;;;;;;;;;4999994;28;20114;-74
2023/04/29 13:16:44;;;;;;;4.45;2.58;;;;;;;;;;4997956;28;20471;-75
2023/04/29 13:19:10;;;;;;;6.60;2.65;;;;;;;;;;5000752;28;20026;-74
2023/04/29 13:21:36;;;;;;;3.38;2.28;;;;;;;;;;4998618;28;20032;-74
2023/04/29 13:24:03;;;;;;;4.15;2.58;;;;;;;;;;5002382;28;20022;-76
2023/04/29 13:26:29;;;;;;;3.40;2.40;;;;;;;;;;4996460;28;20022;-75
2023/04/29 13:28:55;;;;;;;4.32;2.58;;;;;;;;;;4998885;28;20030;-75
2023/04/29 13:31:21;;;;;;;4.45;2.30;;;;;;;;;;4995341;28;20182;-75
2023/04/29 13:33:47;;;;;;;5.35;2.40;;;;;;;;;;4998184;28;20113;-75
2023/04/29 13:36:14;;;;;;;6.05;3.03;;;;;;;;;;5003535;28;20056;-75
2023/04/29 13:38:40;;;;;;;5.47;2.10;;;;;;;;;;5002290;28;20506;-75
2023/04/29 13:41:07;;;;;;;3.22;2.13;;;;;;;;;;5002495;28;20022;-74
2023/04/29 13:43:33;;;;;;;3.55;2.25;;;;;;;;;;4999073;28;20471;-75
2023/04/29 13:45:59;;;;;;;3.70;2.30;;;;;;;;;;4997153;28;20141;-75
2023/04/29 13:48:26;;;;;;;4.93;2.85;;;;;;;;;;4997639;28;20455;-75
2023/04/29 13:50:52;;;;;;;3.70;2.42;;;;;;;;;;5002051;28;20413;-75
2023/04/29 13:53:18;;;;;;;4.45;2.15;;;;;;;;;;4995421;28;20022;-74
2023/04/29 13:55:44;;;;;;;3.90;2.20;;;;;;;;;;4996124;28;20022;-75
2023/04/29 13:58:10;;;;;;;4.85;2.17;;;;;;;;;;4977188;28;20116;-75
2023/04/29 14:00:38;;;;;;;6.15;2.58;;;;;;;;;;4996704;28;20586;-74
2023/04/29 14:03:06;;;;;;;3.22;2.40;;;;;;;;;;5002774;28;20076;-74
2023/04/29 14:05:32;;;;;;;4.57;2.13;;;;;;;;;;4990936;28;20565;-74
2023/04/29 14:07:59;;;;;;;3.83;1.90;;;;;;;;;;5001365;28;20037;-75
2023/04/29 14:10:25;;;;;;;6.00;2.78;;;;;;;;;;4995632;28;20037;-75
2023/04/29 14:12:51;;;;;;;5.35;2.45;;;;;;;;;;5003231;28;20025;-75
2023/04/29 14:15:17;;;;;;;4.82;2.50;;;;;;;;;;4993429;28;20026;-74
2023/04/29 14:17:44;;;;;;;5.55;2.30;;;;;;;;;;4996975;28;20025;-76
2023/04/29 14:20:10;;;;;;;3.85;2.50;;;;;;;;;;4996000;28;20024;-75
2023/04/29 14:22:36;;;;;;;5.03;2.70;;;;;;;;;;4992860;28;20042;-74
2023/04/29 14:25:02;;;;;;;6.00;2.55;;;;;;;;;;4998852;28;20101;-75
2023/04/29 14:27:29;;;;;;;4.45;2.30;;;;;;;;;;4997881;28;20594;-74
2023/04/29 14:29:55;;;;;;;7.88;2.70;;;;;;;;;;4993546;28;20442;-74
2023/04/29 14:32:21;;;;;;;4.00;2.63;;;;;;;;;;4998651;28;20018;-74
2023/04/29 14:34:47;;;;;;;4.55;2.50;;;;;;;;;;4993179;28;20034;-76
2023/04/29 14:37:14;;;;;;;3.60;2.20;;;;;;;;;;5000176;28;20551;-75
2023/04/29 14:39:40;;;;;;;2.85;2.33;;;;;;;;;;4998180;28;20172;-75